Current Weather

Pearce

Pearce, Australia (YPEA)

Report from: Wednesday, July 17, 2024 1:00 AM AEST
Current time: Wednesday, July 17, 2024 1:16 AM AEST

Nearby weather – Weather history – Daily summaries
Weather forecast

Temperature17.0°C (62.6°F)
Dew point6.0°C (42.8°F)
Winds 11 kts (5.7 m/s, 12.7 mph) East-Northeast (60°)
Visibility6.2 mi. (10 km)
Clouds Sky clear
Altimeter30.12 in.Hg (1020 mB)
Relative humidity48 %
Density altitude145 ft. (44 m)
Remarks Fully automated report
No clouds detected
Flight conditions Visual Meteorological Conditions
Raw dataYPEA 161500Z AUTO 06011KT 9999 // NCD 17/06 Q1020 RF00.0/000.0
An error has occurred. This application may no longer respond until reloaded. Reload 🗙